createdAt,value
2022-11-06T00:00:36.992Z,12.13
2022-11-06T00:01:36.985Z,12.20
2022-11-06T00:02:37.033Z,12.22
2022-11-06T00:03:36.998Z,12.18
2022-11-06T00:04:36.913Z,12.22
2022-11-06T00:05:36.923Z,12.07
2022-11-06T00:06:37.023Z,12.13
2022-11-06T00:07:36.900Z,12.21
2022-11-06T00:08:36.868Z,12.13
2022-11-06T00:09:36.909Z,12.18
2022-11-06T00:10:36.843Z,12.15
2022-11-06T00:11:36.856Z,12.15
2022-11-06T00:12:36.825Z,12.18
2022-11-06T00:13:36.813Z,12.17
2022-11-06T00:14:36.803Z,12.13
2022-11-06T00:15:36.802Z,12.28
2022-11-06T00:16:36.922Z,12.22
2022-11-06T00:17:36.768Z,12.21
2022-11-06T00:18:36.786Z,12.17
2022-11-06T00:19:36.748Z,12.18
2022-11-06T00:20:36.756Z,12.25
2022-11-06T00:21:36.741Z,12.28
2022-11-06T00:22:36.729Z,12.29
2022-11-06T00:23:36.778Z,12.22
2022-11-06T00:24:36.693Z,12.24
2022-11-06T00:25:36.676Z,12.21
2022-11-06T00:26:36.680Z,12.21
2022-11-06T00:27:36.701Z,12.18
2022-11-06T00:28:36.645Z,12.22
2022-11-06T00:29:36.634Z,12.22
2022-11-06T00:30:36.622Z,12.18
2022-11-06T00:31:36.643Z,12.22
2022-11-06T00:32:36.610Z,12.21
2022-11-06T00:33:36.686Z,12.17
2022-11-06T00:34:36.572Z,12.10
2022-11-06T00:35:36.571Z,12.22
2022-11-06T00:36:36.551Z,12.27
2022-11-06T00:37:36.548Z,12.28
2022-11-06T00:38:36.553Z,12.22
2022-11-06T00:39:36.598Z,12.22
2022-11-06T00:40:36.514Z,12.21
2022-11-06T00:41:36.498Z,12.15
2022-11-06T00:42:36.516Z,12.20
2022-11-06T00:43:36.477Z,12.18
2022-11-06T00:44:36.480Z,12.13
2022-11-06T00:45:36.500Z,12.17
2022-11-06T00:46:36.451Z,12.18
2022-11-06T00:47:36.430Z,12.13
2022-11-06T00:48:36.426Z,12.17
2022-11-06T00:49:36.423Z,12.15
2022-11-06T00:50:36.416Z,12.15
2022-11-06T00:51:36.430Z,12.09
2022-11-06T00:52:36.405Z,12.17
2022-11-06T00:53:36.375Z,12.15
2022-11-06T00:54:36.383Z,12.21
2022-11-06T00:55:36.361Z,12.10
2022-11-06T00:56:36.339Z,12.00
2022-11-06T00:57:36.430Z,12.04
2022-11-06T00:58:36.319Z,12.10
2022-11-06T00:59:36.303Z,12.06
2022-11-06T01:00:36.311Z,12.10
2022-11-06T01:01:36.427Z,12.07
2022-11-06T01:02:36.438Z,12.06
2022-11-06T01:03:36.341Z,12.04
2022-11-06T01:04:36.250Z,12.03
2022-11-06T01:05:36.278Z,12.04
2022-11-06T01:06:36.226Z,12.03
2022-11-06T01:07:36.216Z,12.03
2022-11-06T01:08:36.199Z,12.03
2022-11-06T01:09:36.218Z,12.10
2022-11-06T01:10:36.210Z,12.06
2022-11-06T01:11:59.373Z,12.03
2022-11-06T01:12:37.161Z,12.09
2022-11-06T01:13:36.238Z,12.12
2022-11-06T01:14:36.137Z,12.07
2022-11-06T01:15:36.175Z,12.02
2022-11-06T01:16:36.111Z,12.03
2022-11-06T01:17:36.126Z,12.03
2022-11-06T01:18:36.096Z,11.97
2022-11-06T01:19:36.084Z,12.00
2022-11-06T01:20:36.072Z,11.95
2022-11-06T01:21:36.092Z,11.95
2022-11-06T01:22:36.049Z,11.99
2022-11-06T01:23:36.039Z,11.99
2022-11-06T01:24:36.179Z,11.97
2022-11-06T01:25:36.015Z,12.00
2022-11-06T01:26:39.353Z,12.00
2022-11-06T01:27:37.031Z,11.95
2022-11-06T01:28:35.981Z,12.02
2022-11-06T01:29:35.979Z,11.87
2022-11-06T01:30:35.955Z,11.86
2022-11-06T01:31:35.950Z,11.81
2022-11-06T01:32:35.934Z,11.88
2022-11-06T01:33:35.948Z,11.86
2022-11-06T01:34:35.913Z,11.95
2022-11-06T01:35:35.904Z,11.83
2022-11-06T01:36:35.893Z,11.87
2022-11-06T01:37:35.879Z,11.94
2022-11-06T01:38:35.872Z,11.90
2022-11-06T01:39:35.980Z,11.88
2022-11-06T01:40:35.844Z,11.99
2022-11-06T01:41:35.839Z,11.99
2022-11-06T01:42:35.928Z,11.88
2022-11-06T01:43:35.840Z,11.88
2022-11-06T01:44:35.812Z,11.97
2022-11-06T01:45:35.825Z,11.90
2022-11-06T01:46:35.819Z,11.84
2022-11-06T01:47:35.766Z,11.88
2022-11-06T01:48:35.760Z,11.90
2022-11-06T01:49:35.777Z,11.90
2022-11-06T01:50:35.753Z,11.99
2022-11-06T01:51:35.739Z,11.99
2022-11-06T01:52:35.716Z,11.95
2022-11-06T01:53:35.722Z,12.00
2022-11-06T01:54:35.693Z,11.95
2022-11-06T01:55:35.693Z,11.91
2022-11-06T01:56:35.667Z,11.90
2022-11-06T01:57:35.721Z,11.94
2022-11-06T01:58:35.674Z,11.91
2022-11-06T01:59:35.642Z,11.84
2022-11-06T02:00:35.660Z,11.94
2022-11-06T02:01:35.746Z,11.91
2022-11-06T02:02:35.824Z,11.90
2022-11-06T02:03:35.699Z,11.90
2022-11-06T02:04:35.589Z,11.97
2022-11-06T02:05:35.574Z,11.97
2022-11-06T02:06:35.558Z,11.94
2022-11-06T02:07:35.548Z,11.95
2022-11-06T02:08:35.534Z,11.90
2022-11-06T02:09:35.576Z,11.99
2022-11-06T02:10:35.521Z,11.94
2022-11-06T02:11:35.513Z,11.99
2022-11-06T02:12:35.498Z,11.97
2022-11-06T02:13:35.483Z,12.02
2022-11-06T02:14:35.491Z,12.06
2022-11-06T02:15:35.527Z,12.02
2022-11-06T02:16:35.448Z,12.02
2022-11-06T02:17:35.439Z,12.06
2022-11-06T02:18:35.466Z,11.95
2022-11-06T02:19:35.427Z,12.00
2022-11-06T02:20:35.400Z,11.99
2022-11-06T02:21:35.413Z,12.00
2022-11-06T02:22:35.400Z,12.04
2022-11-06T02:23:35.376Z,12.00
2022-11-06T02:24:35.370Z,12.03
2022-11-06T02:25:35.350Z,11.97
2022-11-06T02:26:35.346Z,12.09
2022-11-06T02:27:35.342Z,12.06
2022-11-06T02:28:35.321Z,12.04
2022-11-06T02:29:35.330Z,12.06
2022-11-06T02:30:35.317Z,12.04
2022-11-06T02:31:35.284Z,12.09
2022-11-06T02:32:35.274Z,12.02
2022-11-06T02:33:35.273Z,12.02
2022-11-06T02:34:35.252Z,12.02
2022-11-06T02:35:35.270Z,12.03
2022-11-06T02:36:35.229Z,12.10
2022-11-06T02:37:35.220Z,12.02
2022-11-06T02:38:35.234Z,12.03
2022-11-06T02:39:35.237Z,12.10
2022-11-06T02:40:35.188Z,12.07
2022-11-06T02:41:35.256Z,12.04
2022-11-06T02:42:35.167Z,12.07
2022-11-06T02:43:35.151Z,12.09
2022-11-06T02:44:35.139Z,12.03
2022-11-06T02:45:35.206Z,12.06
2022-11-06T02:46:35.204Z,12.06
2022-11-06T02:47:35.100Z,12.10
2022-11-06T02:48:35.097Z,12.03
2022-11-06T02:49:35.108Z,12.09
2022-11-06T02:50:35.065Z,12.06
2022-11-06T02:51:35.122Z,12.06
2022-11-06T02:52:35.041Z,12.10
2022-11-06T02:53:35.037Z,12.03
2022-11-06T02:54:35.050Z,12.04
2022-11-06T02:55:35.013Z,12.03
2022-11-06T02:56:35.006Z,12.10
2022-11-06T02:57:35.007Z,12.09
2022-11-06T02:58:38.698Z,12.09
2022-11-06T02:59:34.987Z,12.09
2022-11-06T03:00:34.953Z,12.06
2022-11-06T03:01:35.127Z,12.04
2022-11-06T03:02:35.150Z,12.06
2022-11-06T03:03:34.992Z,12.03
2022-11-06T03:04:34.914Z,12.17
2022-11-06T03:05:34.906Z,12.06
2022-11-06T03:06:34.890Z,12.03
2022-11-06T03:07:34.877Z,12.06
2022-11-06T03:08:34.873Z,12.09
2022-11-06T03:09:34.983Z,12.15
2022-11-06T03:10:34.847Z,12.13
2022-11-06T03:11:34.832Z,12.13
2022-11-06T03:12:34.845Z,12.12
2022-11-06T03:13:34.811Z,12.10
2022-11-06T03:14:34.805Z,12.06
2022-11-06T03:15:34.807Z,12.18
2022-11-06T03:16:34.779Z,12.10
2022-11-06T03:17:34.765Z,12.03
2022-11-06T03:18:34.814Z,12.09
2022-11-06T03:19:34.743Z,12.13
2022-11-06T03:20:34.752Z,12.18
2022-11-06T03:21:34.753Z,12.03
2022-11-06T03:22:34.712Z,12.13
2022-11-06T03:23:34.714Z,12.03
2022-11-06T03:24:34.698Z,12.15
2022-11-06T03:25:34.687Z,12.15
2022-11-06T03:26:34.664Z,12.15
2022-11-06T03:27:34.745Z,12.12
2022-11-06T03:28:34.644Z,12.07
2022-11-06T03:29:34.636Z,12.06
2022-11-06T03:30:34.623Z,12.13
2022-11-06T03:31:34.610Z,12.18
2022-11-06T03:32:34.600Z,12.03
2022-11-06T03:33:34.619Z,12.15
2022-11-06T03:34:34.601Z,12.17
2022-11-06T03:35:34.570Z,12.12
2022-11-06T03:36:34.566Z,12.12
2022-11-06T03:37:34.543Z,12.07
2022-11-06T03:38:38.325Z,12.06
2022-11-06T03:39:35.555Z,12.07
2022-11-06T03:40:34.545Z,12.02
2022-11-06T03:41:34.552Z,12.09
2022-11-06T03:42:34.491Z,12.10
2022-11-06T03:43:34.504Z,12.07
2022-11-06T03:44:34.510Z,12.02
2022-11-06T03:45:34.527Z,12.03
2022-11-06T03:46:34.448Z,12.00
2022-11-06T03:47:34.448Z,12.07
2022-11-06T03:48:34.428Z,12.04
2022-11-06T03:49:34.428Z,12.07
2022-11-06T03:50:34.416Z,12.03
2022-11-06T03:51:34.445Z,11.99
2022-11-06T03:52:34.373Z,11.94
2022-11-06T03:53:34.367Z,11.94
2022-11-06T03:54:34.391Z,12.03
2022-11-06T03:55:34.342Z,11.91
2022-11-06T03:56:34.337Z,11.86
2022-11-06T03:57:34.344Z,11.91
2022-11-06T03:58:34.377Z,11.83
2022-11-06T03:59:34.301Z,11.84
2022-11-06T04:00:34.281Z,11.90
2022-11-06T04:01:34.424Z,11.87
2022-11-06T04:02:34.390Z,11.87
2022-11-06T04:03:34.275Z,11.90
2022-11-06T04:04:34.244Z,11.91
2022-11-06T04:05:34.235Z,11.86
2022-11-06T04:06:34.315Z,11.88
2022-11-06T04:07:34.209Z,11.78
2022-11-06T04:08:34.193Z,11.86
2022-11-06T04:09:34.215Z,11.77
2022-11-06T04:10:34.177Z,11.84
2022-11-06T04:11:34.161Z,11.83
2022-11-06T04:12:34.148Z,11.72
2022-11-06T04:13:34.249Z,11.78
2022-11-06T04:14:34.127Z,11.78
2022-11-06T04:15:34.135Z,11.78
2022-11-06T04:16:34.127Z,11.77
2022-11-06T04:17:34.091Z,11.70
2022-11-06T04:18:34.077Z,11.73
2022-11-06T04:19:34.076Z,11.65
2022-11-06T04:20:34.062Z,11.73
2022-11-06T04:21:34.095Z,11.68
2022-11-06T04:22:34.069Z,11.73
2022-11-06T04:23:34.020Z,11.70
2022-11-06T04:24:34.011Z,11.55
2022-11-06T04:25:34.002Z,11.63
2022-11-06T04:26:33.987Z,11.69
2022-11-06T04:27:34.033Z,11.65
2022-11-06T04:28:33.962Z,11.63
2022-11-06T04:29:33.955Z,11.52
2022-11-06T04:30:33.945Z,11.55
2022-11-06T04:31:33.933Z,11.59
2022-11-06T04:32:33.919Z,11.57
2022-11-06T04:33:34.038Z,11.52
2022-11-06T04:34:33.908Z,11.57
2022-11-06T04:35:33.901Z,11.57
2022-11-06T04:36:33.885Z,11.52
2022-11-06T04:37:33.859Z,11.50
2022-11-06T04:38:33.876Z,11.57
2022-11-06T04:39:33.897Z,11.63
2022-11-06T04:40:33.834Z,11.55
2022-11-06T04:41:33.825Z,11.55
2022-11-06T04:42:33.848Z,11.52
2022-11-06T04:43:33.804Z,11.52
2022-11-06T04:44:33.806Z,11.52
2022-11-06T04:45:33.819Z,11.60
2022-11-06T04:46:33.764Z,11.65
2022-11-06T04:47:33.758Z,11.57
2022-11-06T04:48:33.767Z,11.55
2022-11-06T04:49:33.758Z,11.59
2022-11-06T04:50:33.720Z,11.66
2022-11-06T04:51:33.750Z,11.59
2022-11-06T04:52:33.699Z,11.68
2022-11-06T04:53:33.687Z,11.60
2022-11-06T04:54:33.788Z,11.52
2022-11-06T04:55:33.665Z,11.57
2022-11-06T04:56:35.260Z,11.55
2022-11-06T04:57:33.778Z,11.72
2022-11-06T04:58:33.627Z,11.63
2022-11-06T04:59:33.615Z,11.70
2022-11-06T05:00:33.651Z,11.69
2022-11-06T05:01:33.858Z,11.66
2022-11-06T05:02:33.610Z,11.70
2022-11-06T05:03:33.628Z,11.70
2022-11-06T05:04:33.568Z,11.63
2022-11-06T05:05:33.556Z,11.69
2022-11-06T05:06:33.555Z,11.62
2022-11-06T05:07:33.541Z,11.65
2022-11-06T05:08:33.524Z,11.66
2022-11-06T05:09:33.525Z,11.73
2022-11-06T05:10:33.522Z,11.73
2022-11-06T05:11:33.484Z,11.70
2022-11-06T05:12:33.479Z,11.73
2022-11-06T05:13:33.540Z,11.78
2022-11-06T05:14:33.464Z,11.73
2022-11-06T05:15:33.523Z,11.81
2022-11-06T05:16:33.428Z,11.86
2022-11-06T05:17:36.455Z,11.75
2022-11-06T05:18:33.406Z,11.83
2022-11-06T05:19:33.398Z,11.83
2022-11-06T05:20:33.414Z,11.86
2022-11-06T05:21:33.408Z,11.88
2022-11-06T05:22:33.385Z,11.84
2022-11-06T05:23:33.355Z,11.88
2022-11-06T05:24:33.346Z,11.83
2022-11-06T05:25:33.429Z,11.94
2022-11-06T05:26:33.345Z,11.87
2022-11-06T05:27:33.349Z,11.91
2022-11-06T05:28:33.308Z,11.87
2022-11-06T05:29:33.320Z,11.91
2022-11-06T05:30:33.280Z,11.86
2022-11-06T05:31:33.265Z,11.90
2022-11-06T05:32:33.283Z,11.94
2022-11-06T05:33:33.268Z,11.86
2022-11-06T05:34:33.251Z,11.87
2022-11-06T05:35:33.243Z,11.87
2022-11-06T05:36:33.232Z,11.94
2022-11-06T05:37:33.198Z,11.88
2022-11-06T05:38:33.191Z,11.86
2022-11-06T05:39:36.579Z,11.91
2022-11-06T05:40:34.163Z,11.90
2022-11-06T05:41:33.157Z,11.88
2022-11-06T05:42:33.315Z,11.84
2022-11-06T05:43:33.140Z,11.88
2022-11-06T05:44:33.122Z,11.94
2022-11-06T05:45:33.124Z,11.99
2022-11-06T05:46:48.201Z,11.97
2022-11-06T05:47:34.091Z,12.06
2022-11-06T05:48:33.082Z,12.00
2022-11-06T05:49:33.074Z,11.90
2022-11-06T05:50:33.056Z,11.95
2022-11-06T05:51:33.069Z,11.97
2022-11-06T05:52:33.038Z,12.00
2022-11-06T05:53:33.038Z,11.95
2022-11-06T05:54:33.011Z,12.06
2022-11-06T05:55:33.005Z,11.99
2022-11-06T05:56:32.987Z,12.00
2022-11-06T05:57:33.002Z,12.02
2022-11-06T05:58:32.999Z,12.02
2022-11-06T05:59:32.964Z,12.02
2022-11-06T06:00:32.951Z,11.94
2022-11-06T06:01:33.063Z,12.02
2022-11-06T06:02:33.100Z,11.99
2022-11-06T06:03:32.992Z,12.04
2022-11-06T06:04:32.905Z,12.04
2022-11-06T06:05:32.896Z,12.06
2022-11-06T06:06:32.895Z,12.06
2022-11-06T06:07:32.867Z,12.04
2022-11-06T06:08:32.873Z,12.07
2022-11-06T06:09:32.880Z,12.00
2022-11-06T06:10:32.837Z,12.04
2022-11-06T06:11:32.827Z,12.00
2022-11-06T06:12:32.812Z,12.10
2022-11-06T06:13:32.805Z,12.07
2022-11-06T06:14:32.818Z,12.04
2022-11-06T06:15:32.806Z,12.04
2022-11-06T06:16:32.789Z,12.07
2022-11-06T06:17:32.758Z,12.06
2022-11-06T06:18:32.749Z,12.13
2022-11-06T06:19:32.733Z,12.15
2022-11-06T06:20:32.725Z,12.22
2022-11-06T06:21:32.720Z,12.18
2022-11-06T06:22:32.719Z,12.20
2022-11-06T06:23:32.727Z,12.28
2022-11-06T06:24:32.727Z,12.24
2022-11-06T06:25:32.665Z,12.25
2022-11-06T06:26:32.681Z,12.27
2022-11-06T06:27:32.661Z,12.18
2022-11-06T06:28:32.693Z,12.25
2022-11-06T06:29:32.612Z,12.28
2022-11-06T06:30:32.691Z,12.31
2022-11-06T06:31:32.595Z,12.27
2022-11-06T06:32:32.592Z,12.21
2022-11-06T06:33:32.593Z,12.21
2022-11-06T06:34:32.559Z,12.28
2022-11-06T06:35:32.596Z,12.21
2022-11-06T06:36:32.539Z,12.17
2022-11-06T06:37:32.532Z,12.20
2022-11-06T06:38:32.516Z,12.15
2022-11-06T06:39:32.531Z,12.31
2022-11-06T06:40:32.510Z,12.31
2022-11-06T06:41:32.476Z,12.24
2022-11-06T06:42:32.502Z,12.29
2022-11-06T06:43:32.457Z,12.31
2022-11-06T06:44:32.459Z,12.27
2022-11-06T06:45:32.455Z,12.31
2022-11-06T06:46:32.453Z,12.28
2022-11-06T06:47:32.410Z,12.21
2022-11-06T06:48:32.410Z,12.27
2022-11-06T06:49:32.399Z,12.21
2022-11-06T06:50:32.387Z,12.22
2022-11-06T06:51:32.446Z,12.15
2022-11-06T06:52:32.361Z,12.17
2022-11-06T06:53:32.370Z,12.12
2022-11-06T06:54:32.338Z,12.13
2022-11-06T06:55:32.326Z,12.04
2022-11-06T06:56:32.315Z,12.10
2022-11-06T06:57:32.346Z,12.09
2022-11-06T06:58:32.297Z,12.02
2022-11-06T06:59:32.284Z,12.13
2022-11-06T07:00:32.269Z,12.04
2022-11-06T07:01:32.401Z,12.07
2022-11-06T07:02:32.423Z,12.06
2022-11-06T07:03:32.297Z,12.04
2022-11-06T07:04:32.293Z,12.12
2022-11-06T07:05:32.210Z,12.10
2022-11-06T07:06:32.203Z,12.00
2022-11-06T07:07:32.189Z,12.00
2022-11-06T07:08:32.204Z,12.07
2022-11-06T07:09:32.311Z,12.04
2022-11-06T07:10:32.169Z,12.07
2022-11-06T07:11:32.147Z,12.07
2022-11-06T07:12:32.142Z,12.02
2022-11-06T07:13:35.835Z,12.10
2022-11-06T07:14:32.113Z,12.00
2022-11-06T07:15:32.161Z,12.10
2022-11-06T07:16:32.089Z,11.99
2022-11-06T07:17:32.083Z,12.06
2022-11-06T07:18:32.143Z,12.09
2022-11-06T07:19:32.058Z,12.00
2022-11-06T07:20:32.055Z,12.07
2022-11-06T07:21:32.115Z,12.09
2022-11-06T07:22:37.069Z,12.03
2022-11-06T07:23:33.044Z,12.10
2022-11-06T07:24:32.004Z,12.22
2022-11-06T07:25:31.999Z,12.22
2022-11-06T07:26:31.981Z,12.18
2022-11-06T07:27:32.021Z,12.28
2022-11-06T07:28:31.958Z,12.20
2022-11-06T07:29:31.946Z,12.27
2022-11-06T07:30:31.944Z,12.29
2022-11-06T07:31:31.940Z,12.29
2022-11-06T07:32:31.936Z,12.35
2022-11-06T07:33:31.933Z,12.31
2022-11-06T07:34:31.930Z,12.37
2022-11-06T07:35:31.882Z,12.40
2022-11-06T07:36:31.865Z,12.39
2022-11-06T07:37:31.857Z,12.43
2022-11-06T07:38:31.848Z,12.45
2022-11-06T07:39:31.909Z,12.46
2022-11-06T07:40:31.822Z,12.47
2022-11-06T07:41:31.811Z,12.55
2022-11-06T07:42:31.798Z,12.57
2022-11-06T07:43:31.829Z,12.55
2022-11-06T07:44:31.785Z,12.57
2022-11-06T07:45:31.786Z,12.58
2022-11-06T07:46:31.761Z,12.65
2022-11-06T07:47:31.742Z,12.57
2022-11-06T07:48:31.734Z,12.64
2022-11-06T07:49:31.726Z,12.64
2022-11-06T07:50:31.823Z,12.67
2022-11-06T07:51:31.848Z,12.75
2022-11-06T07:52:31.693Z,12.68
2022-11-06T07:53:31.719Z,12.73
2022-11-06T07:54:31.663Z,12.72
2022-11-06T07:55:31.657Z,12.75
2022-11-06T07:56:31.641Z,12.80
2022-11-06T07:57:31.691Z,12.83
2022-11-06T07:58:31.620Z,12.83
2022-11-06T07:59:31.617Z,12.79
2022-11-06T08:00:31.602Z,12.90
2022-11-06T08:01:31.761Z,12.91
2022-11-06T08:02:31.776Z,12.98
2022-11-06T08:03:31.579Z,12.97
2022-11-06T08:04:31.561Z,13.03
2022-11-06T08:05:31.548Z,12.97
2022-11-06T08:06:31.557Z,13.01
2022-11-06T08:07:31.517Z,13.01
2022-11-06T08:08:31.518Z,13.09
2022-11-06T08:09:31.515Z,13.00
2022-11-06T08:10:31.499Z,13.12
2022-11-06T08:11:31.482Z,13.18
2022-11-06T08:12:31.474Z,13.19
2022-11-06T08:13:31.458Z,13.20
2022-11-06T08:14:31.443Z,13.27
2022-11-06T08:15:31.477Z,13.33
2022-11-06T08:16:31.421Z,13.31
2022-11-06T08:17:31.404Z,13.30
2022-11-06T08:18:31.418Z,13.33
2022-11-06T08:19:31.410Z,13.27
2022-11-06T08:20:31.369Z,13.28
2022-11-06T08:21:31.410Z,13.38
2022-11-06T08:22:31.369Z,13.38
2022-11-06T08:23:31.345Z,13.44
2022-11-06T08:24:31.347Z,13.49
2022-11-06T08:25:31.316Z,13.52
2022-11-06T08:26:31.313Z,13.62
2022-11-06T08:27:31.353Z,13.62
2022-11-06T08:28:31.290Z,13.70
2022-11-06T08:29:31.282Z,13.77
2022-11-06T08:30:31.265Z,13.78
2022-11-06T08:31:31.265Z,13.85
2022-11-06T08:32:31.244Z,13.83
2022-11-06T08:33:31.273Z,13.81
2022-11-06T08:34:31.218Z,13.90
2022-11-06T08:35:31.209Z,14.00
2022-11-06T08:36:31.192Z,14.05
2022-11-06T08:37:31.185Z,14.20
2022-11-06T08:38:31.222Z,14.25
2022-11-06T08:39:31.177Z,14.29
2022-11-06T08:40:31.609Z,14.44
2022-11-06T08:41:31.146Z,14.53
2022-11-06T08:42:31.129Z,14.66
2022-11-06T08:43:31.132Z,14.78
2022-11-06T08:44:31.107Z,14.82
2022-11-06T08:45:31.226Z,14.82
2022-11-06T08:46:31.083Z,14.92
2022-11-06T08:47:31.072Z,15.09
2022-11-06T08:48:31.089Z,15.15
2022-11-06T08:49:31.047Z,15.21
2022-11-06T08:50:31.039Z,15.31
2022-11-06T08:51:31.069Z,15.37
2022-11-06T08:52:34.111Z,15.49
2022-11-06T08:53:31.084Z,15.51
2022-11-06T08:54:31.015Z,15.58
2022-11-06T08:55:30.986Z,15.59
2022-11-06T08:56:30.969Z,15.68
2022-11-06T08:57:30.977Z,15.70
2022-11-06T08:58:30.970Z,15.79
2022-11-06T08:59:30.939Z,15.76
2022-11-06T09:00:30.923Z,15.75
2022-11-06T09:01:31.114Z,15.86
2022-11-06T09:02:30.926Z,15.92
2022-11-06T09:03:30.910Z,15.91
2022-11-06T09:04:30.885Z,15.97
2022-11-06T09:05:30.866Z,16.04
2022-11-06T09:06:30.862Z,16.04
2022-11-06T09:07:30.863Z,16.08
2022-11-06T09:08:30.835Z,16.16
2022-11-06T09:09:30.919Z,16.21
2022-11-06T09:10:30.948Z,16.20
2022-11-06T09:11:30.805Z,16.16
2022-11-06T09:12:30.790Z,16.38
2022-11-06T09:13:30.788Z,16.39
2022-11-06T09:14:30.769Z,16.42
2022-11-06T09:15:30.822Z,16.43
2022-11-06T09:16:30.747Z,16.47
2022-11-06T09:17:30.769Z,16.43
2022-11-06T09:18:30.730Z,16.42
2022-11-06T09:19:30.720Z,16.43
2022-11-06T09:20:30.711Z,16.47
2022-11-06T09:21:30.718Z,16.54
2022-11-06T09:22:30.676Z,16.56
2022-11-06T09:23:30.682Z,16.60
2022-11-06T09:24:57.268Z,16.54
2022-11-06T09:25:31.647Z,16.60
2022-11-06T09:26:30.656Z,16.56
2022-11-06T09:27:30.665Z,16.51
2022-11-06T09:28:30.612Z,16.50
2022-11-06T09:29:30.598Z,16.56
2022-11-06T09:30:30.589Z,16.56
2022-11-06T09:31:30.576Z,16.49
2022-11-06T09:32:30.583Z,16.53
2022-11-06T09:33:30.639Z,16.60
2022-11-06T09:34:30.540Z,16.51
2022-11-06T09:35:30.531Z,16.65
2022-11-06T09:36:30.519Z,16.66
2022-11-06T09:37:30.507Z,16.65
2022-11-06T09:38:30.517Z,16.64
2022-11-06T09:39:30.521Z,16.61
2022-11-06T09:40:30.480Z,16.57
2022-11-06T09:41:30.469Z,16.61
2022-11-06T09:42:30.485Z,16.75
2022-11-06T09:44:03.524Z,16.61
2022-11-06T09:44:31.490Z,16.69
2022-11-06T09:45:30.433Z,16.69
2022-11-06T09:46:30.408Z,16.74
2022-11-06T09:47:30.420Z,16.66
2022-11-06T09:48:30.390Z,16.78
2022-11-06T09:49:30.389Z,16.65
2022-11-06T09:50:30.438Z,16.71
2022-11-06T09:51:30.344Z,16.72
2022-11-06T09:52:30.341Z,16.79
2022-11-06T09:53:30.385Z,16.79
2022-11-06T09:54:30.320Z,16.87
2022-11-06T09:55:30.308Z,16.83
2022-11-06T09:56:30.349Z,16.90
2022-11-06T09:57:30.286Z,16.91
2022-11-06T09:58:30.298Z,16.94
2022-11-06T09:59:30.256Z,16.94
2022-11-06T10:00:30.250Z,17.04
2022-11-06T10:01:30.399Z,17.09
2022-11-06T10:02:30.431Z,17.20
2022-11-06T10:03:30.216Z,17.15
2022-11-06T10:04:30.200Z,17.22
2022-11-06T10:05:30.220Z,17.24
2022-11-06T10:06:30.175Z,17.31
2022-11-06T10:07:30.170Z,17.31
2022-11-06T10:08:30.213Z,17.33
2022-11-06T10:09:30.149Z,17.38
2022-11-06T10:10:30.136Z,17.27
2022-11-06T10:11:30.123Z,17.30
2022-11-06T10:12:30.239Z,17.26
2022-11-06T10:13:30.099Z,17.26
2022-11-06T10:14:30.181Z,17.19
2022-11-06T10:15:30.085Z,17.19
2022-11-06T10:16:30.069Z,17.29
2022-11-06T10:17:30.051Z,17.26
2022-11-06T10:18:30.078Z,17.23
2022-11-06T10:19:30.037Z,17.22
2022-11-06T10:20:30.107Z,17.19
2022-11-06T10:21:30.019Z,17.22
2022-11-06T10:22:30.002Z,17.23
2022-11-06T10:23:29.998Z,17.16
2022-11-06T10:24:29.982Z,17.14
2022-11-06T10:25:29.967Z,17.14
2022-11-06T10:26:33.599Z,17.15
2022-11-06T10:27:29.945Z,17.22
2022-11-06T10:28:29.940Z,17.19
2022-11-06T10:29:29.925Z,17.22
2022-11-06T10:30:30.005Z,17.15
2022-11-06T10:31:29.905Z,17.22
2022-11-06T10:32:29.936Z,17.20
2022-11-06T10:33:29.899Z,17.29
2022-11-06T10:34:29.895Z,17.15
2022-11-06T10:35:29.857Z,17.26
2022-11-06T10:36:29.859Z,17.23
2022-11-06T10:37:29.854Z,17.33
2022-11-06T10:38:29.910Z,17.23
2022-11-06T10:39:29.817Z,17.30
2022-11-06T10:40:29.815Z,17.30
2022-11-06T10:41:29.790Z,17.29
2022-11-06T10:42:32.690Z,17.39
2022-11-06T10:43:30.810Z,17.36
2022-11-06T10:44:29.755Z,17.27
2022-11-06T10:45:29.791Z,17.30
2022-11-06T10:46:29.761Z,17.33
2022-11-06T10:47:29.722Z,17.24
2022-11-06T10:48:31.723Z,17.26
2022-11-06T10:49:29.724Z,17.20
2022-11-06T10:50:29.687Z,17.27
2022-11-06T10:51:29.673Z,17.22
2022-11-06T10:52:29.710Z,17.23
2022-11-06T10:53:29.649Z,17.36
2022-11-06T10:54:29.644Z,17.27
2022-11-06T10:55:29.665Z,17.36
2022-11-06T10:56:29.621Z,17.29
2022-11-06T10:57:29.609Z,17.27
2022-11-06T10:58:29.683Z,17.23
2022-11-06T10:59:29.580Z,17.27
2022-11-06T11:00:29.587Z,17.12
2022-11-06T11:01:29.804Z,17.08
2022-11-06T11:02:29.628Z,17.05
2022-11-06T11:03:29.542Z,16.96
2022-11-06T11:04:29.525Z,16.90
2022-11-06T11:05:29.544Z,16.84
2022-11-06T11:06:29.530Z,16.79
2022-11-06T11:07:29.528Z,16.74
2022-11-06T11:08:29.484Z,16.72
2022-11-06T11:09:29.503Z,16.74
2022-11-06T11:10:29.457Z,16.74
2022-11-06T11:11:29.455Z,16.72
2022-11-06T11:12:29.436Z,16.84
2022-11-06T11:13:29.474Z,16.86
2022-11-06T11:14:29.453Z,16.93
2022-11-06T11:15:29.423Z,17.02
2022-11-06T11:16:29.403Z,17.04
2022-11-06T11:17:29.387Z,17.11
2022-11-06T11:18:29.460Z,17.14
2022-11-06T11:19:29.447Z,17.16
2022-11-06T11:20:29.351Z,17.29
2022-11-06T11:21:29.346Z,17.24
2022-11-06T11:22:33.179Z,17.30
2022-11-06T11:23:29.380Z,17.27
2022-11-06T11:24:29.316Z,17.39
2022-11-06T11:25:29.327Z,17.39
2022-11-06T11:26:29.286Z,17.41
2022-11-06T11:27:29.297Z,17.42
2022-11-06T11:28:29.267Z,17.46
2022-11-06T11:29:29.266Z,17.48
2022-11-06T11:30:29.260Z,17.60
2022-11-06T11:31:29.272Z,17.54
2022-11-06T11:32:29.216Z,17.49
2022-11-06T11:33:29.202Z,17.51
2022-11-06T11:34:29.218Z,17.56
2022-11-06T11:35:29.183Z,17.64
2022-11-06T11:36:29.176Z,17.67
2022-11-06T11:37:29.201Z,17.56
2022-11-06T11:38:29.142Z,17.51
2022-11-06T11:39:29.148Z,17.51
2022-11-06T11:40:29.130Z,17.52
2022-11-06T11:41:29.114Z,17.38
2022-11-06T11:42:29.113Z,17.33
2022-11-06T11:43:29.156Z,17.29
2022-11-06T11:44:29.085Z,17.29
2022-11-06T11:45:29.072Z,17.15
2022-11-06T11:46:29.114Z,17.08
2022-11-06T11:47:29.049Z,16.96
2022-11-06T11:48:29.034Z,16.90
2022-11-06T11:49:29.061Z,16.83
2022-11-06T11:50:29.039Z,16.79
2022-11-06T11:51:28.994Z,16.74
2022-11-06T11:52:29.052Z,16.66
2022-11-06T11:53:28.980Z,16.53
2022-11-06T11:54:28.979Z,16.61
2022-11-06T11:55:28.976Z,16.76
2022-11-06T11:56:57.834Z,16.65
2022-11-06T11:57:29.932Z,16.72
2022-11-06T11:58:28.922Z,16.61
2022-11-06T11:59:28.905Z,16.65
2022-11-06T12:00:28.912Z,16.57
2022-11-06T12:01:28.969Z,16.66
2022-11-06T12:02:29.005Z,16.72
2022-11-06T12:03:28.961Z,16.58
2022-11-06T12:04:28.871Z,16.68
2022-11-06T12:05:28.838Z,16.60
2022-11-06T12:06:28.943Z,16.57
2022-11-06T12:07:28.835Z,16.69
2022-11-06T12:08:28.840Z,16.65
2022-11-06T12:09:28.820Z,16.53
2022-11-06T12:10:28.782Z,16.54
2022-11-06T12:11:28.783Z,16.56
2022-11-06T12:12:28.759Z,16.56
2022-11-06T12:13:28.831Z,16.47
2022-11-06T12:14:28.741Z,16.39
2022-11-06T12:15:28.732Z,16.43
2022-11-06T12:16:28.726Z,16.33
2022-11-06T12:17:28.703Z,16.33
2022-11-06T12:18:28.699Z,16.33
2022-11-06T12:19:28.738Z,16.35
2022-11-06T12:20:28.686Z,16.33
2022-11-06T12:21:28.667Z,16.31
2022-11-06T12:22:28.672Z,16.38
2022-11-06T12:23:28.642Z,16.33
2022-11-06T12:24:28.654Z,16.39
2022-11-06T12:25:28.670Z,16.41
2022-11-06T12:26:28.611Z,16.42
2022-11-06T12:27:28.603Z,16.43
2022-11-06T12:28:28.588Z,16.41
2022-11-06T12:29:28.639Z,16.39
2022-11-06T12:30:28.567Z,16.39
2022-11-06T12:31:28.648Z,16.41
2022-11-06T12:32:28.550Z,16.39
2022-11-06T12:34:03.988Z,16.46
2022-11-06T12:34:29.528Z,16.43
2022-11-06T12:35:28.526Z,16.32
2022-11-06T12:36:28.493Z,16.32
2022-11-06T12:37:28.503Z,16.33
2022-11-06T12:38:28.597Z,16.16
2022-11-06T12:39:28.459Z,16.24
2022-11-06T12:40:28.476Z,16.21
2022-11-06T12:41:28.446Z,16.16
2022-11-06T12:42:28.432Z,16.05
2022-11-06T12:43:28.452Z,16.04
2022-11-06T12:44:28.402Z,16.02
2022-11-06T12:45:28.395Z,16.00
2022-11-06T12:46:28.376Z,15.97
2022-11-06T12:47:28.400Z,15.91
2022-11-06T12:48:28.358Z,15.86
2022-11-06T12:49:28.382Z,15.84
2022-11-06T12:50:28.345Z,15.84
2022-11-06T12:51:28.379Z,15.91
2022-11-06T12:52:28.325Z,15.83